createdAt,value
2019-03-01T00:01:55.997Z,98252.73
2019-03-01T00:05:14.234Z,98255.45
2019-03-01T00:08:19.973Z,98251.46
2019-03-01T00:11:37.944Z,98247.47
2019-03-01T00:15:05.103Z,98240.58
2019-03-01T00:18:38.179Z,98241.69
2019-03-01T00:22:13.629Z,98233.89
2019-03-01T00:25:31.673Z,98240.86
2019-03-01T00:29:07.936Z,98227.72
2019-03-01T00:32:36.750Z,98221.29
2019-03-01T00:36:00.916Z,98221.06
2019-03-01T00:39:42.870Z,98220.26
2019-03-01T00:43:16.128Z,98206.31
2019-03-01T00:46:20.585Z,98205.20
2019-03-01T00:49:25.277Z,98192.03
2019-03-01T00:52:29.739Z,98185.86
2019-03-01T00:55:34.182Z,98186.42
2019-03-01T00:58:38.629Z,98188.27
2019-03-01T01:01:43.395Z,98187.70
2019-03-01T01:04:47.825Z,98187.52
2019-03-01T01:07:52.262Z,98176.81
2019-03-01T01:10:56.714Z,98168.74
2019-03-01T01:14:01.151Z,98163.38
2019-03-01T01:17:05.602Z,98165.00
2019-03-01T01:20:10.882Z,98156.98
2019-03-01T01:23:15.337Z,98144.98
2019-03-01T01:26:19.782Z,98143.08
2019-03-01T01:29:24.213Z,98143.61
2019-03-01T01:32:28.654Z,98146.29
2019-03-01T01:35:33.099Z,98151.91
2019-03-01T01:38:37.546Z,98143.33
2019-03-01T01:41:42.066Z,98141.77
2019-03-01T01:44:46.748Z,98137.19
2019-03-01T01:47:51.196Z,98133.66
2019-03-01T01:50:55.901Z,98133.45
2019-03-01T01:54:00.413Z,98129.14
2019-03-01T01:57:04.861Z,98127.83
2019-03-01T02:00:13.176Z,98125.68
2019-03-01T02:03:17.612Z,98117.11
2019-03-01T02:06:22.324Z,98121.13
2019-03-01T02:09:26.843Z,98120.04
2019-03-01T02:12:31.290Z,98119.54
2019-03-01T02:15:35.798Z,98117.64
2019-03-01T02:18:40.260Z,98117.36
2019-03-01T02:21:45.258Z,98112.25
2019-03-01T02:24:49.782Z,98113.59
2019-03-01T02:27:54.723Z,98103.92
2019-03-01T02:31:04.002Z,98099.38
2019-03-01T02:34:08.792Z,98103.92
2019-03-01T02:37:13.224Z,98092.17
2019-03-01T02:40:18.138Z,98091.86
2019-03-01T02:43:22.574Z,98084.66
2019-03-01T02:46:27.005Z,98077.71
2019-03-01T02:49:31.445Z,98078.02
2019-03-01T02:52:36.248Z,98075.34
2019-03-01T02:55:41.287Z,98079.33
2019-03-01T02:58:46.030Z,98076.94
2019-03-01T03:01:50.456Z,98072.88
2019-03-01T03:04:55.387Z,98077.71
2019-03-01T03:08:04.371Z,98079.13
2019-03-01T03:11:09.138Z,98079.70
2019-03-01T03:14:13.882Z,98073.52
2019-03-01T03:17:18.703Z,98067.10
2019-03-01T03:20:23.141Z,98071.63
2019-03-01T03:23:27.582Z,98056.11
2019-03-01T03:26:32.278Z,98046.42
2019-03-01T03:29:36.722Z,98046.98
2019-03-01T03:32:41.216Z,98056.92
2019-03-01T03:35:45.643Z,98051.28
2019-03-01T03:38:50.080Z,98056.64
2019-03-01T03:41:54.507Z,98057.42
2019-03-01T03:44:59.234Z,98056.05
2019-03-01T03:48:03.661Z,98051.79
2019-03-01T03:51:08.121Z,98046.15
2019-03-01T03:54:12.544Z,98035.71
2019-03-01T03:57:16.980Z,98027.95
2019-03-01T04:00:25.585Z,98023.46
2019-03-01T04:03:30.280Z,98010.89
2019-03-01T04:06:35.114Z,98015.17
2019-03-01T04:09:39.843Z,98013.25
2019-03-01T04:12:44.277Z,98001.72
2019-03-01T04:15:49.006Z,97997.14
2019-03-01T04:18:53.742Z,97990.98
2019-03-01T04:21:58.460Z,97993.12
2019-03-01T04:25:02.969Z,97982.45
2019-03-01T04:28:07.718Z,97981.91
2019-03-01T04:31:12.154Z,97972.54
2019-03-01T04:34:16.973Z,97972.54
2019-03-01T04:37:21.492Z,97965.87
2019-03-01T04:40:26.227Z,97969.86
2019-03-01T04:43:30.662Z,97957.24
2019-03-01T04:46:35.100Z,97958.34
2019-03-01T04:49:39.543Z,97959.98
2019-03-01T04:52:43.964Z,97945.55
2019-03-01T04:55:48.659Z,97955.16
2019-03-01T04:58:53.086Z,97952.77
2019-03-01T05:01:57.805Z,97955.48
2019-03-01T05:05:02.241Z,97949.09
2019-03-01T05:08:06.668Z,97946.44
2019-03-01T05:11:11.384Z,97946.16
2019-03-01T05:14:16.125Z,97940.05
2019-03-01T05:17:20.544Z,97938.71
2019-03-01T05:20:25.271Z,97934.39
2019-03-01T05:23:29.700Z,97929.34
2019-03-01T05:26:34.129Z,97932.83
2019-03-01T05:29:38.554Z,97931.73
2019-03-01T05:32:43.270Z,97922.66
2019-03-01T05:35:48.002Z,97924.27
2019-03-01T05:38:52.422Z,97922.16
2019-03-01T05:41:56.862Z,97915.50
2019-03-01T05:45:01.292Z,97918.94
2019-03-01T05:48:05.810Z,97930.09
2019-03-01T05:51:10.251Z,97942.37
2019-03-01T05:54:14.676Z,97949.34
2019-03-01T05:57:19.380Z,97948.03
2019-03-01T06:00:23.812Z,97959.55
2019-03-01T06:03:44.954Z,97950.52
2019-03-01T06:07:18.488Z,97952.39
2019-03-01T06:10:43.017Z,97950.27
2019-03-01T06:14:17.641Z,97945.73
2019-03-01T06:17:54.698Z,97940.13
2019-03-01T06:21:15.446Z,97937.44
2019-03-01T06:24:52.894Z,97931.31
2019-03-01T06:28:23.998Z,97934.51
2019-03-01T06:32:08.345Z,97941.47
2019-03-01T06:35:43.967Z,97943.59
2019-03-01T06:39:33.997Z,97950.02
2019-03-01T06:43:10.675Z,97955.38
2019-03-01T06:46:54.878Z,97955.35
2019-03-01T06:50:03.394Z,97951.08
2019-03-01T06:53:07.827Z,97946.02
2019-03-01T06:56:12.520Z,97942.54
2019-03-01T06:59:16.952Z,97948.94
2019-03-01T07:02:23.031Z,97953.23
2019-03-01T07:05:27.453Z,97944.13
2019-03-01T07:08:31.915Z,97946.23
2019-03-01T07:11:36.676Z,97947.58
2019-03-01T07:14:41.401Z,97946.00
2019-03-01T07:17:45.842Z,97955.88
2019-03-01T07:20:50.268Z,97950.54
2019-03-01T07:23:55.034Z,97956.17
2019-03-01T07:26:59.493Z,97957.77
2019-03-01T07:30:09.262Z,97943.86
2019-03-01T07:33:13.990Z,97947.05
2019-03-01T07:36:18.718Z,97948.12
2019-03-01T07:39:23.451Z,97950.53
2019-03-01T07:42:27.881Z,97951.60
2019-03-01T07:45:32.305Z,97957.73
2019-03-01T07:48:37.016Z,97955.05
2019-03-01T07:51:41.445Z,97961.21
2019-03-01T07:54:45.877Z,97962.02
2019-03-01T07:57:50.650Z,97950.53
2019-03-01T08:00:55.439Z,97949.71
2019-03-01T08:03:59.874Z,97948.12
2019-03-01T08:07:04.591Z,97937.12
2019-03-01T08:10:20.598Z,97938.22
2019-03-01T08:13:20.997Z,97932.88
2019-03-01T08:16:25.464Z,97932.36
2019-03-01T08:19:30.167Z,97935.27
2019-03-01T08:22:44.792Z,97943.80
2019-03-01T08:25:41.367Z,97941.09
2019-03-01T08:28:45.793Z,97938.10
2019-03-01T08:31:52.770Z,97932.19
2019-03-01T08:34:56.682Z,97932.72
2019-03-01T08:38:01.113Z,97930.07
2019-03-01T08:41:06.521Z,97934.30
2019-03-01T08:44:11.394Z,97940.11
2019-03-01T08:47:20.364Z,97938.73
2019-03-01T08:50:22.599Z,97935.77
2019-03-01T08:53:27.330Z,97935.99
2019-03-01T08:56:32.062Z,97939.00
2019-03-01T08:59:36.495Z,97939.29
2019-03-01T09:02:41.134Z,97939.53
2019-03-01T09:05:46.254Z,97940.11
2019-03-01T09:08:50.696Z,97930.72
2019-03-01T09:11:55.125Z,97925.23
2019-03-01T09:14:59.561Z,97931.64
2019-03-01T09:18:04.001Z,97928.67
2019-03-01T09:21:12.372Z,97930.92
2019-03-01T09:24:14.944Z,97937.05
2019-03-01T09:27:19.381Z,97937.56
2019-03-01T09:30:26.024Z,97942.45
2019-03-01T09:33:30.779Z,97943.79
2019-03-01T09:36:37.250Z,97944.84
2019-03-01T09:39:41.970Z,97949.72
2019-03-01T09:42:47.502Z,97947.81
2019-03-01T09:45:52.633Z,97946.71
2019-03-01T09:48:57.060Z,97945.75
2019-03-01T09:52:01.820Z,97947.34
2019-03-01T09:55:12.384Z,97947.12
2019-03-01T09:58:17.119Z,97943.11
2019-03-01T10:01:22.553Z,97948.75
2019-03-01T10:04:26.984Z,97956.28
2019-03-01T10:07:31.414Z,97955.53
2019-03-01T10:10:36.648Z,97955.78
2019-03-01T10:13:41.262Z,97956.56
2019-03-01T10:16:46.317Z,97950.41
2019-03-01T10:19:51.052Z,97961.64
2019-03-01T10:22:55.776Z,97960.30
2019-03-01T10:26:00.213Z,97958.90
2019-03-01T10:29:04.636Z,97950.30
2019-03-01T10:32:09.357Z,97959.39
2019-03-01T10:35:15.838Z,97954.56
2019-03-01T10:38:20.563Z,97955.86
2019-03-01T10:41:25.006Z,97965.55
2019-03-01T10:44:29.442Z,97964.47
2019-03-01T10:47:34.133Z,97960.73
2019-03-01T10:50:38.872Z,97966.33
2019-03-01T10:53:43.298Z,97966.08
2019-03-01T10:56:48.022Z,97960.72
2019-03-01T10:59:52.445Z,97966.13
2019-03-01T11:02:57.986Z,97969.58
2019-03-01T11:06:02.590Z,97970.95
2019-03-01T11:09:08.144Z,97971.23
2019-03-01T11:12:12.909Z,97972.07
2019-03-01T11:15:17.635Z,97980.61
2019-03-01T11:18:22.060Z,97980.05
2019-03-01T11:21:26.488Z,97978.98
2019-03-01T11:24:31.210Z,97976.56
2019-03-01T11:27:35.942Z,97986.24
2019-03-01T11:30:40.443Z,97985.20
2019-03-01T11:33:44.870Z,97986.32
2019-03-01T11:36:49.743Z,97985.21
2019-03-01T11:39:54.172Z,97992.20
2019-03-01T11:42:58.991Z,97995.36
2019-03-01T11:46:03.414Z,97998.64
2019-03-01T11:49:07.839Z,97998.61
2019-03-01T11:52:12.562Z,98006.11
2019-03-01T11:55:17.701Z,98007.22
2019-03-01T11:58:22.149Z,98002.91
2019-03-01T12:01:26.587Z,97999.72
2019-03-01T12:04:31.284Z,98001.04
2019-03-01T12:07:35.720Z,97996.45
2019-03-01T12:10:40.440Z,98001.83
2019-03-01T12:13:44.871Z,97998.91
2019-03-01T12:16:49.329Z,97993.55
2019-03-01T12:19:53.743Z,98001.53
2019-03-01T12:22:58.178Z,98005.55
2019-03-01T12:26:03.004Z,98009.54
2019-03-01T12:29:07.427Z,98006.33
2019-03-01T12:32:11.858Z,98006.02
2019-03-01T12:35:16.539Z,98016.23
2019-03-01T12:38:21.274Z,98010.05
2019-03-01T12:41:25.703Z,98018.91
2019-03-01T12:44:30.136Z,98017.55
2019-03-01T12:47:34.587Z,98019.11
2019-03-01T12:50:39.275Z,98015.09
2019-03-01T12:53:44.008Z,98012.69
2019-03-01T12:56:48.738Z,98015.58
2019-03-01T12:59:53.172Z,98016.30
2019-03-01T13:02:57.613Z,98004.33
2019-03-01T13:06:03.886Z,98004.58
2019-03-01T13:09:13.173Z,98008.88
2019-03-01T13:12:17.614Z,98006.76
2019-03-01T13:15:22.445Z,98002.46
2019-03-01T13:18:26.879Z,98008.67
2019-03-01T13:21:31.314Z,98013.74
2019-03-01T13:24:36.020Z,98013.67
2019-03-01T13:27:40.565Z,98006.34
2019-03-01T13:30:45.285Z,98013.00
2019-03-01T13:33:49.727Z,98016.92
2019-03-01T13:36:54.433Z,98017.63
2019-03-01T13:39:58.886Z,98027.19
2019-03-01T13:43:03.693Z,98021.77
2019-03-01T13:46:08.419Z,98011.04
2019-03-01T13:49:12.866Z,98021.55
2019-03-01T13:52:17.883Z,98020.69
2019-03-01T13:55:23.713Z,98020.26
2019-03-01T13:58:28.674Z,98025.53
2019-03-01T14:01:33.114Z,98018.89
2019-03-01T14:04:40.370Z,98019.21
2019-03-01T14:07:44.099Z,98020.67
2019-03-01T14:10:48.823Z,98017.76
2019-03-01T14:13:53.563Z,98019.73
2019-03-01T14:16:58.001Z,98017.13
2019-03-01T14:20:02.711Z,98022.03
2019-03-01T14:23:07.163Z,98033.17
2019-03-01T14:26:14.887Z,98033.09
2019-03-01T14:29:18.038Z,98030.52
2019-03-01T14:32:22.767Z,98036.32
2019-03-01T14:35:27.503Z,98028.14
2019-03-01T14:38:31.941Z,98034.25
2019-03-01T14:41:36.649Z,98034.59
2019-03-01T14:44:41.386Z,98035.80
2019-03-01T14:47:45.821Z,98032.58
2019-03-01T14:50:50.276Z,98037.86
2019-03-01T14:53:55.063Z,98042.00
2019-03-01T14:56:59.889Z,98046.46
2019-03-01T15:00:12.904Z,98040.07
2019-03-01T15:03:36.337Z,98039.89
2019-03-01T15:06:41.330Z,98049.44
2019-03-01T15:09:46.059Z,98043.22
2019-03-01T15:12:53.977Z,98037.66
2019-03-01T15:15:57.318Z,98046.38
2019-03-01T15:19:04.801Z,98051.36
2019-03-01T15:22:09.794Z,98045.72
2019-03-01T15:25:14.627Z,98058.88
2019-03-01T15:28:19.353Z,98067.33
2019-03-01T15:31:24.191Z,98070.83
2019-03-01T15:34:28.927Z,98071.98
2019-03-01T15:37:35.188Z,98075.73
2019-03-01T15:40:40.028Z,98070.70
2019-03-01T15:43:44.460Z,98077.75
2019-03-01T15:46:49.966Z,98085.04
2019-03-01T15:49:55.083Z,98091.20
2019-03-01T15:52:59.861Z,98097.43
2019-03-01T15:56:05.948Z,98097.47
2019-03-01T15:59:11.165Z,98109.00
2019-03-01T16:02:15.902Z,98109.21
2019-03-01T16:05:20.350Z,98111.86
2019-03-01T16:08:24.787Z,98118.63
2019-03-01T16:11:31.010Z,98126.89
2019-03-01T16:14:35.855Z,98126.19
2019-03-01T16:17:40.287Z,98129.11
2019-03-01T16:20:44.756Z,98132.88
2019-03-01T16:23:49.187Z,98128.39
2019-03-01T16:26:53.946Z,98136.70
2019-03-01T16:29:58.402Z,98141.55
2019-03-01T16:33:03.105Z,98141.02
2019-03-01T16:36:09.181Z,98142.91
2019-03-01T16:39:14.135Z,98136.98
2019-03-01T16:42:18.944Z,98143.42
2019-03-01T16:45:23.423Z,98141.28
2019-03-01T16:48:28.289Z,98146.11
2019-03-01T16:51:32.742Z,98155.20
2019-03-01T16:54:37.182Z,98153.31
2019-03-01T16:57:41.874Z,98155.46
2019-03-01T17:00:46.312Z,98158.17
2019-03-01T17:03:52.788Z,98165.41
2019-03-01T17:06:57.301Z,98174.79
2019-03-01T17:10:01.741Z,98172.63
2019-03-01T17:13:06.184Z,98178.54
2019-03-01T17:16:10.625Z,98182.83
2019-03-01T17:19:15.058Z,98190.86
2019-03-01T17:22:19.511Z,98190.59
2019-03-01T17:25:26.985Z,98189.53
2019-03-01T17:28:30.409Z,98190.06
2019-03-01T17:31:34.853Z,98190.86
2019-03-01T17:34:40.174Z,98192.73
2019-03-01T17:37:45.113Z,98198.36
2019-03-01T17:40:49.844Z,98201.82
2019-03-01T17:43:54.573Z,98206.65
2019-03-01T17:46:59.410Z,98212.27
2019-03-01T17:50:05.521Z,98213.33
2019-03-01T17:53:11.329Z,98224.84
2019-03-01T17:56:18.743Z,98226.98
2019-03-01T17:59:23.351Z,98227.53
2019-03-01T18:02:28.072Z,98232.08
2019-03-01T18:05:32.808Z,98237.69
2019-03-01T18:08:39.600Z,98246.54
2019-03-01T18:11:44.558Z,98249.16
2019-03-01T18:14:49.918Z,98248.09
2019-03-01T18:17:54.362Z,98248.41
2019-03-01T18:20:58.795Z,98246.81
2019-03-01T18:24:03.543Z,98249.20
2019-03-01T18:27:08.178Z,98256.42
2019-03-01T18:30:22.838Z,98274.38
2019-03-01T18:33:27.275Z,98276.53
2019-03-01T18:36:32.455Z,98280.24
2019-03-01T18:39:38.246Z,98296.05
2019-03-01T18:42:43.499Z,98293.13
2019-03-01T18:45:48.230Z,98290.41
2019-03-01T18:48:53.008Z,98298.44
2019-03-01T18:51:57.416Z,98294.14
2019-03-01T18:55:01.858Z,98298.69
2019-03-01T18:58:06.299Z,98304.88
2019-03-01T19:01:11.987Z,98315.87
2019-03-01T19:04:29.022Z,98324.19
2019-03-01T19:07:24.350Z,98329.52
2019-03-01T19:10:29.247Z,98328.44
2019-03-01T19:13:33.683Z,98330.84
2019-03-01T19:16:38.121Z,98341.31
2019-03-01T19:19:42.570Z,98342.92
2019-03-01T19:22:47.255Z,98345.00
2019-03-01T19:25:51.686Z,98343.64
2019-03-01T19:28:59.042Z,98351.92
2019-03-01T19:32:02.669Z,98348.45
2019-03-01T19:35:09.650Z,98358.86
2019-03-01T19:38:14.388Z,98361.08
2019-03-01T19:41:20.019Z,98365.62
2019-03-01T19:44:25.654Z,98369.34
2019-03-01T19:47:31.768Z,98376.03
2019-03-01T19:50:36.486Z,98376.53
2019-03-01T19:53:40.923Z,98380.99
2019-03-01T19:56:45.643Z,98388.24
2019-03-01T19:59:50.445Z,98390.95
2019-03-01T20:02:54.870Z,98385.92
2019-03-01T20:05:59.311Z,98388.81
2019-03-01T20:09:05.266Z,98397.06
2019-03-01T20:12:09.700Z,98399.52
2019-03-01T20:15:18.211Z,98402.73
2019-03-01T20:18:22.648Z,98402.16
2019-03-01T20:21:27.376Z,98410.90
2019-03-01T20:24:31.816Z,98409.11
2019-03-01T20:27:39.032Z,98402.68
2019-03-01T20:30:42.582Z,98408.47
2019-03-01T20:33:47.327Z,98418.63
2019-03-01T20:36:52.963Z,98412.48
2019-03-01T20:39:57.929Z,98417.78
2019-03-01T20:43:06.694Z,98419.45
2019-03-01T20:46:08.839Z,98416.80
2019-03-01T20:49:13.541Z,98416.33
2019-03-01T20:52:18.272Z,98415.23
2019-03-01T20:55:23.920Z,98412.72
2019-03-01T20:58:28.580Z,98410.83
2019-03-01T21:01:33.691Z,98412.16
2019-03-01T21:04:40.446Z,98418.59
2019-03-01T21:07:48.206Z,98418.88
2019-03-01T21:10:52.234Z,98421.53
2019-03-01T21:13:57.016Z,98414.36
2019-03-01T21:17:01.771Z,98410.38
2019-03-01T21:20:11.194Z,98421.53
2019-03-01T21:23:16.001Z,98417.57
2019-03-01T21:26:20.747Z,98415.68
2019-03-01T21:29:25.190Z,98420.77
2019-03-01T21:32:29.903Z,98426.62
2019-03-01T21:35:34.631Z,98432.17
2019-03-01T21:38:39.370Z,98425.25
2019-03-01T21:41:44.844Z,98423.70
2019-03-01T21:44:50.118Z,98428.77
2019-03-01T21:47:54.547Z,98429.86
2019-03-01T21:50:59.312Z,98438.68
2019-03-01T21:54:03.749Z,98434.43
2019-03-01T21:57:08.463Z,98435.19
2019-03-01T22:00:17.332Z,98430.34
2019-03-01T22:03:24.803Z,98421.05
2019-03-01T22:06:28.295Z,98432.25
2019-03-01T22:09:32.740Z,98435.63
2019-03-01T22:12:37.345Z,98436.95
2019-03-01T22:15:42.178Z,98437.47
2019-03-01T22:18:46.905Z,98447.73
2019-03-01T22:21:54.699Z,98441.80
2019-03-01T22:24:58.673Z,98450.08
2019-03-01T22:28:04.909Z,98445.78
2019-03-01T22:31:09.626Z,98449.79
2019-03-01T22:34:14.372Z,98449.41
2019-03-01T22:37:19.085Z,98441.74
2019-03-01T22:40:24.061Z,98434.90
2019-03-01T22:43:29.686Z,98443.73
2019-03-01T22:46:34.502Z,98435.38
2019-03-01T22:49:39.248Z,98436.69
2019-03-01T22:52:44.069Z,98441.80
2019-03-01T22:55:48.518Z,98442.55
2019-03-01T22:58:54.282Z,98441.33
2019-03-01T23:01:59.707Z,98446.63
2019-03-01T23:05:06.309Z,98449.44
2019-03-01T23:08:11.115Z,98452.09
2019-03-01T23:11:15.573Z,98454.50
2019-03-01T23:14:20.012Z,98448.80
2019-03-01T23:17:27.593Z,98454.92
2019-03-01T23:20:30.946Z,98453.78
2019-03-01T23:23:35.379Z,98453.33
2019-03-01T23:26:40.102Z,98451.41
2019-03-01T23:29:44.611Z,98456.30
2019-03-01T23:32:52.649Z,98453.91
2019-03-01T23:35:55.521Z,98449.38
2019-03-01T23:39:00.250Z,98457.59
2019-03-01T23:42:04.977Z,98451.50
2019-03-01T23:45:13.753Z,98452.34
2019-03-01T23:48:18.130Z,98452.55
2019-03-01T23:51:22.574Z,98455.58
2019-03-01T23:54:27.281Z,98451.47
2019-03-01T23:57:31.721Z,98451.77
